Time;durP1;ratioP1;P1;durP2;ratioP2;P2;SDS_P1;SDS_P2;PMS_P1;PMS_P2;Temp;Humidity;BMP_temperature;BMP_pressure;BME280_temperature;BME280_humidity;BME280_pressure;Samples;Min_cycle;Max_cycle;Signal;HPM_P1;HPM_P2
2023/10/14 00:00:52;;;;;;;27.40;7.90;;;;;;;22.41;54.43;98303.23;135991;1273;22530;-65
2023/10/14 00:04:09;;;;;;;26.40;8.30;;;;;;;22.29;54.70;98303.41;135979;1273;22527;-65
2023/10/14 00:07:17;;;;;;;25.00;7.70;;;;;;;22.16;54.60;98298.81;135968;1273;22576;-63
2023/10/14 00:10:22;;;;;;;23.60;7.70;;;;;;;22.13;54.61;98295.68;135960;1273;22543;-64
2023/10/14 00:13:30;;;;;;;23.00;7.70;;;;;;;22.21;54.45;98288.95;135993;1273;22646;-63
2023/10/14 00:16:41;;;;;;;22.50;7.70;;;;;;;22.05;54.65;98285.23;135975;1273;22577;-64
2023/10/14 00:19:46;;;;;;;23.90;7.60;;;;;;;22.06;54.40;98284.20;135960;1273;26529;-65
2023/10/14 00:22:48;;;;;;;22.00;7.60;;;;;;;21.95;54.52;98283.34;135996;1273;26631;-64
2023/10/14 00:25:52;;;;;;;;;;;;;;;21.84;54.74;98277.73;135995;1273;22518;-64
2023/10/14 00:28:55;;;;;;;19.90;7.20;;;;;;;21.78;54.91;98276.65;135965;1273;22520;-65
2023/10/14 00:31:59;;;;;;;25.10;7.50;;;;;;;21.72;55.00;98270.48;135987;1273;22530;-65
2023/10/14 00:35:03;;;;;;;24.70;7.30;;;;;;;21.55;55.42;98259.27;135995;1273;22540;-63
2023/10/14 00:38:09;;;;;;;22.00;7.20;;;;;;;21.62;55.33;98253.31;136024;1273;22516;-65
2023/10/14 00:41:11;;;;;;;25.40;7.50;;;;;;;21.61;55.60;98248.12;135975;1273;26459;-63
2023/10/14 00:44:14;;;;;;;27.10;7.90;;;;;;;21.73;55.38;98245.34;135950;1273;25362;-64
2023/10/14 00:47:17;;;;;;;;;;;;;;;21.78;55.37;98239.26;135967;1273;22507;-63
2023/10/14 00:50:33;;;;;;;28.80;10.00;;;;;;;21.81;55.35;98233.85;135959;1273;22539;-64
2023/10/14 00:53:37;;;;;;;25.70;8.50;;;;;;;21.80;55.33;98233.80;135995;1273;22528;-64
2023/10/14 00:56:42;;;;;;;26.00;8.00;;;;;;;21.93;54.99;98229.44;135985;1272;22543;-63
2023/10/14 00:59:44;;;;;;;29.50;8.40;;;;;;;21.97;54.94;98225.03;135982;1273;22535;-62
2023/10/14 01:02:47;;;;;;;;;;;;;;;21.99;54.98;98223.38;136001;1273;25380;-64
2023/10/14 01:05:49;;;;;;;25.00;7.70;;;;;;;22.17;54.64;98217.15;135989;1273;22510;-64
2023/10/14 01:08:53;;;;;;;;;;;;;;;22.15;54.62;98209.36;136001;1273;25247;-64
2023/10/14 01:11:55;;;;;;;24.50;7.10;;;;;;;22.10;54.77;98206.08;135950;1273;24208;-65
2023/10/14 01:14:59;;;;;;;24.50;7.90;;;;;;;22.08;54.92;98203.83;135989;1273;22519;-65
2023/10/14 01:18:01;;;;;;;30.50;8.70;;;;;;;22.08;54.84;98201.89;136037;1273;22542;-63
2023/10/14 01:21:04;;;;;;;27.30;8.30;;;;;;;22.00;54.84;98200.13;135997;1273;22524;-64
2023/10/14 01:24:15;;;;;;;;;;;;;;;21.88;55.17;98190.70;135996;1273;22507;-64
2023/10/14 01:27:17;;;;;;;26.40;8.20;;;;;;;21.83;55.12;98186.54;135990;1273;25388;-63
2023/10/14 01:30:25;;;;;;;27.70;8.00;;;;;;;21.81;54.91;98176.38;136002;1273;22535;-63
2023/10/14 01:33:35;;;;;;;26.10;7.60;;;;;;;21.72;54.95;98172.96;135955;1273;24080;-63
2023/10/14 01:36:40;;;;;;;24.70;7.80;;;;;;;21.68;54.80;98171.18;135992;1273;22531;-64
2023/10/14 01:39:49;;;;;;;27.50;7.80;;;;;;;21.52;55.01;98169.24;135985;1273;22546;-64
2023/10/14 01:42:56;;;;;;;26.80;8.20;;;;;;;21.40;55.32;98165.09;135914;1273;22533;-63
2023/10/14 01:46:02;;;;;;;23.00;7.10;;;;;;;21.35;54.90;98158.33;135872;1273;22636;-65
2023/10/14 01:49:10;;;;;;;23.50;8.00;;;;;;;21.24;54.80;98149.00;135989;1273;22542;-65
2023/10/14 01:52:16;;;;;;;25.50;7.40;;;;;;;21.15;55.00;98146.20;135931;1273;22523;-64
2023/10/14 01:55:21;;;;;;;21.10;7.00;;;;;;;21.01;55.27;98143.78;135944;1273;22535;-65
2023/10/14 01:58:29;;;;;;;;;;;;;;;20.92;55.42;98141.33;135970;1273;22521;-65
2023/10/14 02:01:35;;;;;;;22.70;7.60;;;;;;;20.98;55.17;98135.19;135948;1273;25226;-65
2023/10/14 02:04:37;;;;;;;29.40;7.50;;;;;;;20.87;55.23;98127.50;135947;1273;22552;-65
2023/10/14 02:07:40;;;;;;;;;;;;;;;20.84;55.40;98119.36;135990;1273;22491;-65
2023/10/14 02:10:46;;;;;;;22.50;7.10;;;;;;;20.75;55.53;98106.66;135978;1257;23923;-65
2023/10/14 02:13:50;;;;;;;23.60;6.80;;;;;;;20.80;55.31;98103.34;135978;1273;22539;-65
2023/10/14 02:16:54;;;;;;;25.60;7.20;;;;;;;20.71;55.80;98098.08;135961;1273;25309;-63
2023/10/14 02:20:06;;;;;;;24.60;6.50;;;;;;;20.71;55.92;98098.92;135958;1273;25255;-65
2023/10/14 02:23:11;;;;;;;25.10;6.90;;;;;;;20.76;55.79;98098.27;135966;1273;22520;-65
2023/10/14 02:26:15;;;;;;;24.60;7.40;;;;;;;20.85;55.60;98094.21;135964;1273;23905;-65
2023/10/14 02:29:19;;;;;;;26.40;7.70;;;;;;;20.84;55.65;98089.72;135988;1273;22528;-64
2023/10/14 02:32:21;;;;;;;24.00;7.40;;;;;;;20.94;55.46;98087.45;135940;1254;22530;-65
2023/10/14 02:35:24;;;;;;;;;;;;;;;20.93;55.39;98087.22;135940;1273;22438;-65
2023/10/14 02:38:29;;;;;;;21.50;7.30;;;;;;;20.87;55.49;98088.14;136008;1273;22520;-65
2023/10/14 02:41:32;;;;;;;24.20;6.40;;;;;;;20.96;55.10;98090.14;136012;1273;22575;-64
2023/10/14 02:44:43;;;;;;;23.70;7.20;;;;;;;20.80;55.31;98086.63;135979;1261;22530;-65
2023/10/14 02:47:48;;;;;;;23.40;7.50;;;;;;;20.77;55.26;98085.09;135949;1272;22546;-65
2023/10/14 02:50:51;;;;;;;21.70;7.40;;;;;;;20.68;55.29;98083.18;135969;1272;22513;-65
2023/10/14 02:53:55;;;;;;;24.40;7.90;;;;;;;20.81;54.90;98080.11;135991;1273;22719;-65
2023/10/14 02:56:59;;;;;;;23.10;7.10;;;;;;;20.77;54.82;98076.07;135970;1273;22530;-65
2023/10/14 03:00:01;;;;;;;22.80;6.90;;;;;;;20.75;54.87;98070.83;136007;1273;22550;-65
2023/10/14 03:03:04;;;;;;;21.80;7.10;;;;;;;20.67;55.11;98069.92;135952;1273;22517;-66
2023/10/14 03:06:07;;;;;;;23.60;6.70;;;;;;;20.66;55.14;98066.17;136033;1273;22527;-65
2023/10/14 03:09:10;;;;;;;25.50;6.70;;;;;;;20.65;55.05;98063.77;135947;1273;22524;-66
2023/10/14 03:12:14;;;;;;;28.00;7.20;;;;;;;20.67;54.92;98059.60;136020;1273;22632;-65
2023/10/14 03:15:20;;;;;;;25.40;7.90;;;;;;;20.65;54.89;98061.42;136056;1273;22531;-65
2023/10/14 03:18:30;;;;;;;26.80;8.10;;;;;;;20.57;55.14;98061.11;135941;1273;22527;-64
2023/10/14 03:21:36;;;;;;;24.10;7.30;;;;;;;20.45;55.06;98054.63;135955;1273;22532;-65
2023/10/14 03:24:39;;;;;;;22.70;7.10;;;;;;;20.35;55.08;98050.09;136010;1273;25220;-66
2023/10/14 03:27:41;;;;;;;;;;;;;;;20.28;55.32;98047.00;135967;1273;22517;-63
2023/10/14 03:30:47;;;;;;;23.90;6.70;;;;;;;20.29;54.89;98038.37;135957;1273;22524;-65
2023/10/14 03:33:52;;;;;;;26.10;6.90;;;;;;;20.21;55.04;98032.20;135978;1273;22516;-65
2023/10/14 03:37:00;;;;;;;26.20;7.20;;;;;;;20.30;55.11;98025.95;135967;1273;22536;-65
2023/10/14 03:43:19;;;;;;;24.10;7.60;;;;;;;20.33;55.05;98007.69;135992;1273;22524;-65
2023/10/14 03:46:29;;;;;;;23.60;7.10;;;;;;;20.24;54.95;98000.44;135983;1273;22523;-66
2023/10/14 03:49:33;;;;;;;23.20;7.30;;;;;;;20.31;54.45;97995.39;135979;1272;22534;-65
2023/10/14 03:52:36;;;;;;;21.50;6.50;;;;;;;20.14;54.68;97984.52;135988;1273;22527;-65
2023/10/14 03:55:38;;;;;;;23.10;6.00;;;;;;;20.06;54.93;97979.04;135999;1273;25240;-67
2023/10/14 03:58:42;;;;;;;21.80;6.00;;;;;;;20.13;54.85;97973.64;135983;1273;22703;-65
2023/10/14 04:01:45;;;;;;;22.20;6.50;;;;;;;20.12;55.00;97969.16;135942;1258;22524;-65
2023/10/14 04:04:47;;;;;;;25.00;7.00;;;;;;;20.23;54.86;97971.05;135872;1273;22518;-64
2023/10/14 04:07:50;;;;;;;20.20;6.60;;;;;;;20.28;54.60;97970.48;135945;1273;22518;-64
2023/10/14 04:11:03;;;;;;;;;;;;;;;20.24;54.59;97968.08;135987;1273;22611;-64
2023/10/14 04:14:08;;;;;;;24.90;6.00;;;;;;;20.07;55.03;97968.15;135972;1273;22527;-65
2023/10/14 04:17:18;;;;;;;23.90;6.10;;;;;;;20.05;55.05;97968.11;135932;1273;25322;-63
2023/10/14 04:20:29;;;;;;;23.20;6.30;;;;;;;20.09;55.01;97970.73;135949;1273;22535;-63
2023/10/14 04:23:38;;;;;;;20.80;6.10;;;;;;;20.12;54.17;97976.00;135950;1273;25220;-65
2023/10/14 04:26:41;;;;;;;22.40;6.20;;;;;;;20.00;53.98;97973.27;135929;1273;22576;-65
2023/10/14 04:29:51;;;;;;;23.60;6.30;;;;;;;19.74;53.72;97973.73;135963;1273;22514;-64
2023/10/14 04:33:04;;;;;;;24.80;7.30;;;;;;;19.60;53.92;97969.08;135954;1273;22626;-64
2023/10/14 04:36:23;;;;;;;22.70;6.50;;;;;;;19.40;54.37;97966.68;135932;1273;22526;-63
2023/10/14 04:39:33;;;;;;;24.00;6.40;;;;;;;19.23;54.56;97957.39;135972;1273;22543;-63
2023/10/14 04:42:43;;;;;;;22.80;5.70;;;;;;;19.21;54.78;97946.75;135989;1273;22550;-65
2023/10/14 04:45:51;;;;;;;23.30;6.00;;;;;;;19.31;54.93;97945.73;135952;1273;22520;-65
2023/10/14 04:48:59;;;;;;;25.10;6.10;;;;;;;19.44;54.45;97951.70;136019;1273;22521;-65
2023/10/14 04:52:02;;;;;;;21.00;6.30;;;;;;;19.41;54.49;97951.31;135990;1273;22543;-65
2023/10/14 04:55:18;;;;;;;24.70;6.30;;;;;;;19.50;54.16;97951.29;135946;1273;22537;-65
2023/10/14 04:58:25;;;;;;;25.20;6.90;;;;;;;19.50;53.94;97952.48;135943;1273;22544;-65
2023/10/14 05:01:28;;;;;;;21.50;5.60;;;;;;;19.37;54.07;97954.98;136004;1273;22528;-64
2023/10/14 05:04:37;;;;;;;22.20;5.60;;;;;;;19.20;54.22;97954.74;135945;1273;25408;-65
2023/10/14 05:07:39;;;;;;;20.70;5.80;;;;;;;19.37;53.41;97961.89;136015;1273;22543;-61
2023/10/14 05:10:43;;;;;;;22.20;5.60;;;;;;;19.21;53.72;97959.42;135927;1273;25396;-64
2023/10/14 05:13:45;;;;;;;23.80;6.40;;;;;;;19.23;53.92;97960.45;136005;1273;22523;-65
2023/10/14 05:16:55;;;;;;;;;;;;;;;19.24;54.05;97960.60;135965;1273;23881;-65
2023/10/14 05:20:00;;;;;;;25.00;7.00;;;;;;;19.42;53.67;97957.55;135941;1273;22641;-65
2023/10/14 05:23:05;;;;;;;20.20;6.50;;;;;;;19.53;53.54;97955.14;135901;1273;22516;-64
2023/10/14 05:26:07;;;;;;;26.20;6.20;;;;;;;19.59;53.56;97960.16;135838;1273;22536;-64
2023/10/14 05:29:16;;;;;;;25.30;6.10;;;;;;;19.74;53.55;97963.39;135973;1273;22680;-66
2023/10/14 05:32:23;;;;;;;23.70;5.90;;;;;;;19.87;53.43;97961.81;135971;1273;22540;-65
2023/10/14 05:35:28;;;;;;;26.90;7.30;;;;;;;20.02;53.23;97966.91;136026;1273;22596;-64
2023/10/14 05:38:31;;;;;;;25.70;7.30;;;;;;;20.29;53.02;97972.51;135831;1273;161649;-65
2023/10/14 05:41:34;;;;;;;;;;;;;;;20.45;52.98;97978.63;135998;1257;22505;-63
2023/10/14 05:44:46;;;;;;;;;;;;;;;20.71;52.70;97976.01;135961;1273;22523;-61
2023/10/14 05:47:48;;;;;;;23.50;8.20;;;;;;;21.10;52.34;97973.27;135941;1273;25443;-65
2023/10/14 05:50:51;;;;;;;27.30;7.40;;;;;;;21.34;52.40;97973.27;135977;1273;22531;-64
2023/10/14 05:53:56;;;;;;;24.70;9.60;;;;;;;21.50;52.38;97968.67;135926;1273;22540;-63
2023/10/14 05:57:00;;;;;;;24.10;7.60;;;;;;;21.60;52.53;97970.34;135956;1273;22527;-65
2023/10/14 06:00:12;;;;;;;27.40;8.10;;;;;;;21.86;52.62;97969.46;135983;1273;22551;-63
2023/10/14 06:03:17;;;;;;;29.90;7.60;;;;;;;22.23;52.33;97963.85;135950;1273;22536;-66
2023/10/14 06:06:22;;;;;;;27.50;9.40;;;;;;;22.79;51.27;97958.73;135948;1273;22529;-66
2023/10/14 06:09:26;;;;;;;31.80;9.50;;;;;;;23.00;51.08;97957.33;135977;1273;22630;-65
2023/10/14 06:12:28;;;;;;;27.00;9.50;;;;;;;23.21;50.79;97949.36;135912;1273;25442;-65
2023/10/14 06:15:32;;;;;;;;;;;;;;;23.49;50.42;97945.52;135944;1273;22504;-65
2023/10/14 06:18:35;;;;;;;30.20;9.80;;;;;;;23.61;50.25;97956.36;135950;1273;22526;-66
2023/10/14 06:21:37;;;;;;;;;;;;;;;23.75;50.49;97973.04;136016;1273;22511;-66
2023/10/14 06:24:41;;;;;;;28.00;9.50;;;;;;;23.86;50.51;97966.01;135956;1263;22531;-65
2023/10/14 06:27:45;;;;;;;25.20;9.40;;;;;;;23.83;50.62;97973.02;135961;1273;22580;-65
2023/10/14 06:30:47;;;;;;;27.70;9.40;;;;;;;23.97;50.52;97962.10;135966;1273;22528;-65
2023/10/14 06:33:50;;;;;;;29.30;10.40;;;;;;;24.14;50.61;97948.98;135921;1273;22636;-66
2023/10/14 06:36:52;;;;;;;28.40;10.20;;;;;;;24.22;50.19;97946.85;135916;1273;22547;-65
2023/10/14 06:39:56;;;;;;;28.60;8.60;;;;;;;24.46;50.10;97948.83;135924;1273;22531;-66
2023/10/14 06:43:00;;;;;;;27.90;8.90;;;;;;;24.90;49.16;97942.30;135972;1273;22524;-66
2023/10/14 06:46:04;;;;;;;26.50;9.50;;;;;;;24.99;49.12;97946.68;135910;1273;22536;-66
2023/10/14 06:49:13;;;;;;;37.10;10.70;;;;;;;25.00;49.24;97954.56;135886;1273;24206;-66
2023/10/14 06:52:18;;;;;;;26.90;10.00;;;;;;;25.12;49.28;97959.10;135945;1273;27210;-66
2023/10/14 06:55:23;;;;;;;27.50;9.90;;;;;;;25.27;48.70;97957.79;135888;1273;23907;-66
2023/10/14 06:58:27;;;;;;;28.60;10.10;;;;;;;25.35;48.41;97958.38;135895;1260;22536;-65
2023/10/14 07:01:30;;;;;;;27.20;9.50;;;;;;;25.48;48.46;97964.09;135891;1273;22585;-65
2023/10/14 07:04:37;;;;;;;29.20;9.90;;;;;;;25.44;48.53;97966.75;135910;1273;22528;-65
2023/10/14 07:07:42;;;;;;;31.80;11.00;;;;;;;25.60;48.37;97956.81;135951;1273;22550;-65
2023/10/14 07:10:47;;;;;;;27.60;10.60;;;;;;;25.75;47.91;97954.30;135902;1273;25353;-64
2023/10/14 07:13:49;;;;;;;25.90;10.40;;;;;;;25.86;48.00;97955.08;135915;1273;22539;-66
2023/10/14 07:16:52;;;;;;;34.90;11.70;;;;;;;25.93;47.69;97939.27;135916;1273;25309;-63
2023/10/14 07:19:54;;;;;;;29.10;10.50;;;;;;;26.04;47.16;97932.07;135930;1273;22531;-66
2023/10/14 07:22:58;;;;;;;28.70;10.10;;;;;;;26.32;46.67;97929.67;135888;1273;22535;-65
2023/10/14 07:26:00;;;;;;;27.10;10.00;;;;;;;26.57;46.08;97923.93;135908;1273;25242;-65
2023/10/14 07:29:05;;;;;;;33.30;11.00;;;;;;;26.71;45.99;97925.33;135895;1273;22636;-66
2023/10/14 07:32:08;;;;;;;26.70;9.80;;;;;;;26.84;45.72;97938.92;135857;1273;22542;-65
2023/10/14 07:35:13;;;;;;;26.20;10.60;;;;;;;26.91;45.69;97933.56;135940;1273;22653;-66
2023/10/14 07:38:16;;;;;;;27.90;11.00;;;;;;;27.09;45.34;97931.52;135933;1273;22520;-65
2023/10/14 07:41:21;;;;;;;29.80;10.70;;;;;;;27.31;44.71;97922.67;135929;1273;22546;-64
2023/10/14 07:44:24;;;;;;;30.90;11.00;;;;;;;27.41;44.56;97931.02;135949;1273;25421;-64
2023/10/14 07:47:29;;;;;;;25.90;10.40;;;;;;;27.06;44.78;97943.77;135930;1273;22547;-65
2023/10/14 07:50:33;;;;;;;29.30;10.70;;;;;;;26.89;44.93;97963.25;135952;1273;22855;-63
2023/10/14 07:53:36;;;;;;;26.80;10.70;;;;;;;27.13;44.45;97971.48;135978;1273;25487;-64
2023/10/14 07:56:39;;;;;;;30.70;11.30;;;;;;;27.32;43.87;97968.08;135920;1273;22524;-64
2023/10/14 07:59:43;;;;;;;27.10;11.10;;;;;;;27.34;44.10;97967.83;135918;1273;22530;-63
2023/10/14 08:02:45;;;;;;;29.70;10.20;;;;;;;27.46;43.98;97960.30;135903;1273;22541;-63
2023/10/14 08:05:49;;;;;;;26.40;11.10;;;;;;;27.65;43.71;97971.81;135921;1273;22533;-64
2023/10/14 08:08:52;;;;;;;29.60;10.40;;;;;;;27.79;43.19;97960.34;135965;1273;22529;-61
2023/10/14 08:11:54;;;;;;;29.10;10.90;;;;;;;28.00;43.45;97958.02;135903;1273;22567;-64
2023/10/14 08:14:59;;;;;;;26.30;10.10;;;;;;;28.27;42.64;97957.23;135900;1273;25430;-63
2023/10/14 08:18:04;;;;;;;27.00;10.20;;;;;;;28.33;42.63;97964.34;135877;1270;22524;-64
2023/10/14 08:21:09;;;;;;;26.70;10.50;;;;;;;28.20;42.30;97958.93;135920;1269;25148;-65
2023/10/14 08:24:14;;;;;;;26.30;11.20;;;;;;;28.13;41.72;97962.63;135909;1273;22557;-64
2023/10/14 08:27:17;;;;;;;26.30;10.40;;;;;;;28.19;42.01;97957.23;135904;1270;23695;-64
2023/10/14 08:30:19;;;;;;;28.40;10.70;;;;;;;28.37;41.87;97948.52;135895;1273;22541;-64
2023/10/14 08:33:22;;;;;;;31.80;11.80;;;;;;;28.47;41.30;97944.59;135919;1273;25329;-64
2023/10/14 08:36:26;;;;;;;25.40;9.70;;;;;;;28.52;41.11;97942.98;135881;1273;24212;-63
2023/10/14 08:39:31;;;;;;;24.00;9.20;;;;;;;28.63;40.69;97948.02;135956;1273;22550;-65
2023/10/14 08:42:33;;;;;;;27.70;10.00;;;;;;;28.74;40.86;97946.48;135904;1273;25412;-63
2023/10/14 08:45:36;;;;;;;28.70;10.50;;;;;;;28.88;40.06;97934.02;135918;1273;22520;-65
2023/10/14 08:48:38;;;;;;;27.40;10.40;;;;;;;28.91;40.38;97944.92;135896;1273;22546;-65
2023/10/14 08:51:42;;;;;;;29.80;11.60;;;;;;;28.98;39.86;97945.63;135919;1269;22534;-64
2023/10/14 08:54:46;;;;;;;27.10;9.80;;;;;;;28.89;39.55;97940.55;135927;1273;22553;-64
2023/10/14 08:57:48;;;;;;;25.80;10.00;;;;;;;28.85;39.98;97944.52;135939;1270;22536;-64
2023/10/14 09:00:51;;;;;;;24.30;9.40;;;;;;;29.04;39.87;97947.11;135905;1260;22510;-64
2023/10/14 09:03:53;;;;;;;28.80;10.70;;;;;;;28.95;39.38;97938.11;135874;1273;22536;-65
2023/10/14 09:06:56;;;;;;;29.30;10.60;;;;;;;29.07;39.75;97940.94;135894;1258;23501;-65
2023/10/14 09:09:58;;;;;;;29.90;10.80;;;;;;;29.16;39.73;97937.30;135850;1273;22539;-65
2023/10/14 09:13:03;;;;;;;28.70;10.30;;;;;;;29.30;38.93;97934.23;135852;1273;25323;-63
2023/10/14 09:16:09;;;;;;;26.10;9.70;;;;;;;29.24;39.45;97941.12;135896;1273;22524;-64
2023/10/14 09:19:12;;;;;;;28.40;10.70;;;;;;;29.48;39.06;97939.84;135913;1273;24265;-63
2023/10/14 09:22:14;;;;;;;25.60;8.80;;;;;;;29.59;38.53;97932.09;135947;1273;25487;-64
2023/10/14 09:25:17;;;;;;;28.50;10.60;;;;;;;29.58;38.63;97935.40;135908;1273;24351;-65
2023/10/14 09:28:20;;;;;;;27.60;9.90;;;;;;;29.82;38.75;97942.17;135876;1273;22534;-63
2023/10/14 09:31:24;;;;;;;24.10;9.20;;;;;;;29.87;38.32;97938.09;135917;1273;22534;-64
2023/10/14 09:34:27;;;;;;;27.60;9.50;;;;;;;30.01;38.42;97944.56;135913;1273;22568;-64
2023/10/14 09:37:31;;;;;;;24.80;9.70;;;;;;;30.02;38.01;97945.45;135893;1273;25316;-64
2023/10/14 09:40:34;;;;;;;25.30;9.20;;;;;;;29.84;37.99;97939.59;135866;1273;22513;-65
2023/10/14 09:43:39;;;;;;;26.10;10.30;;;;;;;30.00;38.79;97944.88;135856;1273;22559;-64
2023/10/14 09:46:42;;;;;;;26.40;9.90;;;;;;;30.39;38.16;97942.61;135919;1273;22550;-65
2023/10/14 09:49:44;;;;;;;27.80;9.30;;;;;;;30.50;37.61;97938.05;135916;1273;24492;-64
2023/10/14 09:52:48;;;;;;;27.30;9.40;;;;;;;30.47;37.44;97936.13;135926;1273;22536;-64
2023/10/14 09:55:51;;;;;;;24.60;9.00;;;;;;;30.74;37.73;97945.06;135941;1273;22529;-65
2023/10/14 09:58:53;;;;;;;23.70;8.90;;;;;;;30.99;37.36;97936.32;135897;1273;22550;-63
2023/10/14 10:01:56;;;;;;;26.40;9.30;;;;;;;30.99;36.95;97934.15;135914;1273;22530;-63
2023/10/14 10:04:58;;;;;;;25.00;9.40;;;;;;;31.13;36.56;97924.62;135899;1273;22528;-65
2023/10/14 10:08:01;;;;;;;22.10;8.90;;;;;;;31.03;36.75;97923.77;135905;1273;22528;-63
2023/10/14 10:11:04;;;;;;;25.80;9.30;;;;;;;31.08;36.67;97924.61;135964;1273;22534;-65
2023/10/14 10:14:10;;;;;;;23.80;8.20;;;;;;;30.92;36.84;97924.49;135888;1273;24040;-65
2023/10/14 10:17:13;;;;;;;25.10;8.80;;;;;;;30.84;36.81;97921.19;135953;1273;25415;-63
2023/10/14 10:20:16;;;;;;;24.50;8.10;;;;;;;30.81;36.53;97920.60;135885;1273;22554;-63
2023/10/14 10:23:19;;;;;;;25.70;8.40;;;;;;;30.52;36.41;97917.85;135891;1273;22526;-64
2023/10/14 10:26:23;;;;;;;25.00;8.80;;;;;;;30.34;36.53;97923.37;135898;1273;22538;-64
2023/10/14 10:29:25;;;;;;;28.70;8.70;;;;;;;30.15;36.44;97926.98;135875;1273;25481;-64
2023/10/14 10:32:28;;;;;;;25.60;8.70;;;;;;;30.54;36.28;97918.59;135818;1273;22534;-63
2023/10/14 10:35:30;;;;;;;23.90;7.90;;;;;;;30.58;36.47;97909.85;135699;1273;22563;-64
2023/10/14 10:38:36;;;;;;;23.10;8.70;;;;;;;30.61;36.04;97915.85;135675;1273;25329;-63
2023/10/14 10:41:38;;;;;;;26.40;7.90;;;;;;;30.94;36.13;97913.59;137072;1273;22550;-63
2023/10/14 10:44:43;;;;;;;22.90;7.40;;;;;;;31.21;35.29;97908.32;135848;1273;22520;-64
2023/10/14 10:47:45;;;;;;;24.60;8.10;;;;;;;31.04;35.79;97909.70;135909;1273;22534;-63
2023/10/14 10:50:47;;;;;;;27.80;8.60;;;;;;;31.48;35.88;97896.48;135892;1273;25638;-64
2023/10/14 10:53:52;;;;;;;25.50;8.10;;;;;;;31.55;34.95;97904.63;135915;1273;22545;-64
2023/10/14 10:56:54;;;;;;;22.60;8.10;;;;;;;31.23;35.10;97906.13;135870;1273;22533;-63
2023/10/14 10:59:56;;;;;;;23.10;7.80;;;;;;;30.96;35.57;97910.54;135892;1273;22546;-63
2023/10/14 11:03:00;;;;;;;24.90;8.10;;;;;;;30.61;36.10;97916.44;135899;1273;22534;-64
2023/10/14 11:06:04;;;;;;;25.20;8.20;;;;;;;30.58;35.92;97898.96;135927;1273;22524;-65
2023/10/14 11:09:07;;;;;;;22.70;8.10;;;;;;;29.94;35.88;97903.14;135873;1273;22524;-62
2023/10/14 11:12:10;;;;;;;24.00;7.60;;;;;;;29.85;36.32;97898.66;135915;1273;25393;-64
2023/10/14 11:15:13;;;;;;;22.80;7.40;;;;;;;29.59;36.36;97900.45;135915;1273;22523;-63
2023/10/14 11:18:15;;;;;;;23.90;7.10;;;;;;;29.55;36.43;97903.59;135906;1273;22516;-63
2023/10/14 11:21:18;;;;;;;26.00;8.50;;;;;;;29.72;36.53;97904.69;135904;1273;22554;-60
2023/10/14 11:24:21;;;;;;;22.80;7.60;;;;;;;29.80;36.64;97901.73;135966;1273;22670;-64
2023/10/14 11:27:23;;;;;;;23.50;7.70;;;;;;;29.87;36.54;97901.64;135916;1273;22681;-64
2023/10/14 11:30:26;;;;;;;26.00;8.30;;;;;;;29.94;36.28;97901.29;135906;1273;22533;-64
2023/10/14 11:33:29;;;;;;;26.60;8.60;;;;;;;29.86;36.83;97908.88;135915;1273;24212;-64
2023/10/14 11:36:31;;;;;;;24.20;8.50;;;;;;;30.09;37.05;97904.38;135947;1273;22527;-64
2023/10/14 11:39:36;;;;;;;28.40;8.40;;;;;;;30.30;36.39;97902.96;135890;1273;25351;-64
2023/10/14 11:42:38;;;;;;;25.40;9.20;;;;;;;30.18;36.61;97901.69;135915;1273;24060;-64
2023/10/14 11:45:43;;;;;;;24.80;8.80;;;;;;;30.01;36.62;97898.12;135885;1273;22523;-63
2023/10/14 11:48:46;;;;;;;26.00;9.40;;;;;;;29.72;36.94;97905.08;135934;1273;22568;-64
2023/10/14 11:51:48;;;;;;;24.60;8.40;;;;;;;29.62;37.34;97907.40;135908;1265;22534;-63
2023/10/14 11:54:52;;;;;;;22.80;8.30;;;;;;;29.41;37.21;97908.54;135892;1273;22534;-63
2023/10/14 11:57:54;;;;;;;24.10;8.40;;;;;;;29.18;37.79;97904.91;135928;1273;22534;-63
2023/10/14 12:00:57;;;;;;;25.70;8.50;;;;;;;29.29;37.62;97908.09;135879;1273;22510;-64
2023/10/14 12:04:00;;;;;;;25.40;8.70;;;;;;;29.26;37.84;97913.47;135897;1273;24224;-64
2023/10/14 12:07:04;;;;;;;28.20;9.70;;;;;;;29.49;38.10;97908.05;135935;1273;22559;-63
2023/10/14 12:10:08;;;;;;;26.10;8.80;;;;;;;29.48;37.82;97904.70;135906;1273;23883;-64
2023/10/14 12:13:10;;;;;;;24.20;9.70;;;;;;;29.43;37.68;97906.09;135952;1273;23871;-65
2023/10/14 12:16:12;;;;;;;25.80;9.70;;;;;;;29.32;38.26;97907.87;135906;1273;22546;-62
2023/10/14 12:19:15;;;;;;;25.20;8.30;;;;;;;29.35;38.34;97900.41;135815;1273;22554;-64
2023/10/14 12:22:17;;;;;;;23.20;8.00;;;;;;;29.23;38.41;97914.84;135861;1273;22541;-63
2023/10/14 12:25:20;;;;;;;24.60;8.50;;;;;;;29.10;38.54;97908.61;135923;1273;25412;-63
2023/10/14 12:28:26;;;;;;;27.20;8.90;;;;;;;29.03;38.75;97907.95;135817;1267;24251;-64
2023/10/14 12:31:31;;;;;;;27.30;8.10;;;;;;;28.87;38.97;97909.12;135855;1255;24935;-64
2023/10/14 12:34:33;;;;;;;27.20;9.50;;;;;;;28.77;38.62;97912.87;135894;1273;22530;-63
2023/10/14 12:37:36;;;;;;;22.60;8.50;;;;;;;28.83;39.07;97905.45;135924;1273;22550;-65
2023/10/14 12:40:39;;;;;;;27.60;8.30;;;;;;;28.75;39.07;97906.89;135800;1273;22533;-63
2023/10/14 12:43:41;;;;;;;25.10;8.40;;;;;;;28.62;38.82;97906.56;135932;1273;22566;-64
2023/10/14 12:46:45;;;;;;;26.80;8.50;;;;;;;28.57;39.24;97900.38;135879;1273;24250;-62
2023/10/14 12:49:50;;;;;;;27.40;8.10;;;;;;;28.51;39.26;97893.76;135897;1273;22538;-64
2023/10/14 12:52:56;;;;;;;23.50;8.30;;;;;;;28.46;39.05;97901.67;135923;1273;25408;-64
2023/10/14 12:55:59;;;;;;;26.00;9.80;;;;;;;28.51;39.38;97907.11;135862;1270;25952;-63
2023/10/14 12:59:12;;;;;;;28.50;10.40;;;;;;;28.49;39.06;97903.54;135870;1273;22526;-64
2023/10/14 13:02:17;;;;;;;27.70;8.60;;;;;;;28.52;38.76;97904.86;135888;1273;25246;-64
2023/10/14 13:05:20;;;;;;;27.20;9.00;;;;;;;28.48;38.95;97907.30;135918;1273;22536;-65
2023/10/14 13:08:23;;;;;;;26.40;9.60;;;;;;;28.51;38.69;97904.23;135790;1273;22517;-63
2023/10/14 13:11:25;;;;;;;28.50;10.40;;;;;;;28.24;39.31;97910.79;135798;1273;23129;-64
2023/10/14 13:14:27;;;;;;;28.50;10.30;;;;;;;28.34;39.28;97920.48;135833;1273;22541;-64
2023/10/14 13:17:35;;;;;;;26.20;9.50;;;;;;;28.36;39.52;97910.66;135829;1273;22538;-63
2023/10/14 13:20:37;;;;;;;25.70;8.80;;;;;;;28.25;39.33;97905.11;135870;1273;25411;-63
2023/10/14 13:23:40;;;;;;;23.80;7.90;;;;;;;28.27;39.03;97907.09;135951;1273;22562;-64
2023/10/14 13:26:42;;;;;;;26.30;9.10;;;;;;;28.16;39.37;97906.22;135925;1273;22535;-64
2023/10/14 13:29:44;;;;;;;24.30;9.00;;;;;;;28.13;39.29;97901.46;135895;1273;22540;-64
2023/10/14 13:32:47;;;;;;;28.20;9.20;;;;;;;28.18;39.40;97900.35;135901;1273;22550;-62
2023/10/14 13:35:50;;;;;;;23.60;7.70;;;;;;;28.27;39.10;97903.59;135935;1273;25368;-64
2023/10/14 13:38:52;;;;;;;23.20;8.00;;;;;;;28.47;39.22;97898.62;135913;1257;22524;-63
2023/10/14 13:41:55;;;;;;;27.10;8.00;;;;;;;28.65;39.04;97900.52;135888;1273;24221;-64
2023/10/14 13:44:57;;;;;;;28.50;8.40;;;;;;;28.81;38.83;97899.35;135907;1273;22526;-62
2023/10/14 13:48:06;;;;;;;28.20;8.80;;;;;;;29.16;38.72;97895.19;135940;1273;25261;-63
2023/10/14 13:51:08;;;;;;;27.60;9.80;;;;;;;29.43;38.44;97893.19;135916;1273;23748;-64
2023/10/14 13:54:11;;;;;;;28.30;9.50;;;;;;;29.56;38.20;97888.44;135899;1273;22550;-64
2023/10/14 13:57:17;;;;;;;26.10;9.90;;;;;;;29.36;37.94;97888.08;135865;1273;22646;-63
2023/10/14 14:00:35;;;;;;;25.60;7.90;;;;;;;29.14;38.24;97889.04;135846;1273;25384;-63
2023/10/14 14:03:39;;;;;;;23.80;8.50;;;;;;;28.95;38.44;97897.90;135896;1273;22539;-64
2023/10/14 14:06:42;;;;;;;29.10;11.20;;;;;;;28.75;38.66;97903.73;135924;1273;22538;-64
2023/10/14 14:09:46;;;;;;;25.10;9.50;;;;;;;28.67;39.03;97905.50;135912;1273;23870;-63
2023/10/14 14:12:53;;;;;;;22.90;8.40;;;;;;;28.50;39.26;97901.66;135932;1273;22527;-64